createdAt,value
2023-07-12T00:00:31.676Z,4.03
2023-07-12T00:01:33.481Z,4.47
2023-07-12T00:02:35.019Z,3.97
2023-07-12T00:03:36.785Z,3.83
2023-07-12T00:04:38.286Z,4.07
2023-07-12T00:05:40.211Z,4.00
2023-07-12T00:06:41.722Z,3.67
2023-07-12T00:07:46.375Z,3.85
2023-07-12T00:08:48.221Z,4.25
2023-07-12T00:09:49.651Z,4.10
2023-07-12T00:10:52.918Z,4.18
2023-07-12T00:11:54.355Z,4.30
2023-07-12T00:12:55.972Z,3.80
2023-07-12T00:13:57.414Z,3.65
2023-07-12T00:14:58.878Z,3.75
2023-07-12T00:16:00.322Z,4.28
2023-07-12T00:17:01.907Z,4.00
2023-07-12T00:18:06.129Z,4.00
2023-07-12T00:19:14.052Z,4.30
2023-07-12T00:20:42.060Z,3.53
2023-07-12T00:21:44.103Z,3.92
2023-07-12T00:22:46.792Z,3.50
2023-07-12T00:23:48.224Z,4.03
2023-07-12T00:24:49.820Z,4.00
2023-07-12T00:25:51.442Z,3.90
2023-07-12T00:26:52.870Z,3.85
2023-07-12T00:27:55.118Z,4.00
2023-07-12T00:28:58.746Z,4.03
2023-07-12T00:30:00.498Z,3.85
2023-07-12T00:31:01.992Z,3.35
2023-07-12T00:32:03.715Z,3.90
2023-07-12T00:33:05.214Z,3.92
2023-07-12T00:34:07.596Z,3.80
2023-07-12T00:35:17.047Z,3.72
2023-07-12T00:36:27.477Z,3.85
2023-07-12T00:37:28.919Z,3.72
2023-07-12T00:38:30.452Z,4.20
2023-07-12T00:39:34.170Z,4.32
2023-07-12T00:41:06.541Z,3.97
2023-07-12T00:42:17.225Z,3.88
2023-07-12T00:43:25.543Z,4.40
2023-07-12T00:44:47.081Z,3.83
2023-07-12T00:45:51.854Z,4.40
2023-07-12T00:46:57.575Z,4.28
2023-07-12T00:47:59.390Z,4.15
2023-07-12T00:49:01.341Z,4.10
2023-07-12T00:50:02.921Z,4.30
2023-07-12T00:51:28.626Z,3.78
2023-07-12T00:52:32.142Z,3.83
2023-07-12T00:53:34.122Z,4.03
2023-07-12T00:55:01.076Z,3.97
2023-07-12T00:56:11.302Z,3.70
2023-07-12T00:57:12.978Z,3.92
2023-07-12T00:58:14.560Z,4.18
2023-07-12T00:59:31.119Z,3.53
2023-07-12T01:00:32.591Z,3.80
2023-07-12T01:01:36.816Z,3.72
2023-07-12T01:02:41.444Z,3.92
2023-07-12T01:03:45.303Z,3.88
2023-07-12T01:04:49.380Z,4.00
2023-07-12T01:05:51.185Z,3.78
2023-07-12T01:06:53.239Z,3.28
2023-07-12T01:07:54.745Z,3.60
2023-07-12T01:09:00.576Z,3.58
2023-07-12T01:10:02.593Z,3.70
2023-07-12T01:11:04.630Z,3.60
2023-07-12T01:12:06.860Z,4.43
2023-07-12T01:13:09.074Z,3.40
2023-07-12T01:14:12.823Z,3.40
2023-07-12T01:15:14.324Z,3.70
2023-07-12T01:16:19.719Z,3.40
2023-07-12T01:17:24.641Z,3.13
2023-07-12T01:18:27.167Z,3.30
2023-07-12T01:19:29.723Z,3.60
2023-07-12T01:20:38.906Z,3.17
2023-07-12T01:21:51.646Z,3.63
2023-07-12T01:22:54.382Z,3.35
2023-07-12T01:23:55.842Z,3.83
2023-07-12T01:24:57.293Z,3.45
2023-07-12T01:26:24.299Z,3.40
2023-07-12T01:27:26.663Z,3.42
2023-07-12T01:28:28.315Z,3.03
2023-07-12T01:29:30.619Z,3.22
2023-07-12T01:30:32.891Z,3.13
2023-07-12T01:31:35.693Z,3.20
2023-07-12T01:33:40.933Z,3.80
2023-07-12T01:34:42.556Z,3.35
2023-07-12T01:35:44.253Z,3.40
2023-07-12T01:36:46.564Z,3.60
2023-07-12T01:37:48.115Z,3.17
2023-07-12T01:38:51.247Z,3.22
2023-07-12T01:39:53.158Z,3.17
2023-07-12T01:40:57.735Z,3.25
2023-07-12T01:42:00.531Z,2.72
2023-07-12T01:43:05.460Z,3.13
2023-07-12T01:44:07.550Z,3.17
2023-07-12T01:45:09.445Z,3.10
2023-07-12T01:46:11.142Z,2.70
2023-07-12T01:47:12.959Z,3.10
2023-07-12T01:48:14.405Z,3.15
2023-07-12T01:49:15.996Z,3.22
2023-07-12T01:50:17.617Z,2.92
2023-07-12T01:51:20.719Z,3.22
2023-07-12T01:52:22.229Z,3.00
2023-07-12T01:53:23.714Z,2.88
2023-07-12T01:54:25.178Z,2.63
2023-07-12T01:55:26.636Z,2.90
2023-07-12T01:56:28.163Z,2.53
2023-07-12T01:57:29.631Z,3.38
2023-07-12T01:58:31.497Z,3.00
2023-07-12T01:59:32.931Z,3.22
2023-07-12T02:00:34.367Z,2.95
2023-07-12T02:01:35.860Z,3.00
2023-07-12T02:02:37.441Z,2.88
2023-07-12T02:03:39.218Z,2.78
2023-07-12T02:04:40.840Z,2.92
2023-07-12T02:05:43.523Z,3.40
2023-07-12T02:06:45.016Z,2.70
2023-07-12T02:07:46.477Z,2.97
2023-07-12T02:08:47.984Z,2.70
2023-07-12T02:10:10.082Z,2.65
2023-07-12T02:11:11.903Z,2.83
2023-07-12T02:12:13.559Z,2.97
2023-07-12T02:13:15.575Z,3.03
2023-07-12T02:14:17.541Z,2.58
2023-07-12T02:15:20.760Z,2.92
2023-07-12T02:16:22.402Z,2.70
2023-07-12T02:17:23.938Z,3.42
2023-07-12T02:18:25.572Z,3.05
2023-07-12T02:19:27.123Z,2.75
2023-07-12T02:20:28.728Z,3.50
2023-07-12T02:21:30.694Z,2.80
2023-07-12T02:22:34.436Z,3.50
2023-07-12T02:23:35.936Z,2.83
2023-07-12T02:24:37.410Z,2.75
2023-07-12T02:25:40.042Z,3.10
2023-07-12T02:26:42.732Z,3.22
2023-07-12T02:27:47.742Z,3.20
2023-07-12T02:28:49.259Z,2.67
2023-07-12T02:29:51.072Z,3.22
2023-07-12T02:30:52.522Z,3.08
2023-07-12T02:31:56.379Z,3.03
2023-07-12T02:32:58.645Z,3.28
2023-07-12T02:34:00.515Z,3.08
2023-07-12T02:35:02.061Z,3.30
2023-07-12T02:36:03.623Z,3.20
2023-07-12T02:37:05.228Z,3.30
2023-07-12T02:38:07.063Z,3.28
2023-07-12T02:39:08.505Z,3.13
2023-07-12T02:40:11.576Z,2.95
2023-07-12T02:41:13.113Z,2.97
2023-07-12T02:42:14.636Z,3.30
2023-07-12T02:43:16.087Z,3.00
2023-07-12T02:44:18.086Z,3.03
2023-07-12T02:45:19.576Z,3.05
2023-07-12T02:46:21.678Z,3.10
2023-07-12T02:47:23.706Z,3.22
2023-07-12T02:48:25.217Z,3.15
2023-07-12T02:49:26.964Z,3.30
2023-07-12T02:50:28.860Z,3.15
2023-07-12T02:51:30.347Z,2.92
2023-07-12T02:52:31.868Z,2.83
2023-07-12T02:54:37.192Z,2.75
2023-07-12T02:55:39.139Z,2.67
2023-07-12T02:56:40.606Z,2.70
2023-07-12T02:57:42.405Z,2.88
2023-07-12T02:58:43.868Z,2.78
2023-07-12T02:59:45.362Z,3.10
2023-07-12T03:00:48.209Z,2.55
2023-07-12T03:01:50.414Z,2.95
2023-07-12T03:02:51.996Z,2.60
2023-07-12T03:03:54.274Z,2.90
2023-07-12T03:04:55.783Z,2.33
2023-07-12T03:06:02.232Z,2.30
2023-07-12T03:07:04.634Z,2.65
2023-07-12T03:08:06.838Z,2.58
2023-07-12T03:09:08.313Z,2.38
2023-07-12T03:10:10.021Z,2.40
2023-07-12T03:11:13.110Z,2.50
2023-07-12T03:12:14.838Z,2.38
2023-07-12T03:13:16.296Z,2.42
2023-07-12T03:14:19.252Z,2.13
2023-07-12T03:15:22.158Z,2.35
2023-07-12T03:16:24.233Z,2.58
2023-07-12T03:17:26.010Z,1.95
2023-07-12T03:18:28.539Z,2.20
2023-07-12T03:19:30.109Z,2.20
2023-07-12T03:20:34.310Z,2.00
2023-07-12T03:21:35.843Z,1.80
2023-07-12T03:22:37.309Z,2.28
2023-07-12T03:23:38.755Z,2.03
2023-07-12T03:24:40.259Z,1.83
2023-07-12T03:25:46.739Z,2.00
2023-07-12T03:26:48.201Z,2.00
2023-07-12T03:27:51.732Z,1.95
2023-07-12T03:28:53.657Z,2.03
2023-07-12T03:29:55.088Z,1.80
2023-07-12T03:31:04.377Z,2.10
2023-07-12T03:32:06.725Z,1.98
2023-07-12T03:33:08.359Z,1.63
2023-07-12T03:34:10.358Z,1.75
2023-07-12T03:35:11.805Z,1.90
2023-07-12T03:36:14.459Z,2.00
2023-07-12T03:37:16.357Z,1.73
2023-07-12T03:38:18.494Z,1.88
2023-07-12T03:39:19.950Z,1.75
2023-07-12T03:40:21.437Z,1.95
2023-07-12T03:41:23.153Z,1.90
2023-07-12T03:42:24.613Z,2.00
2023-07-12T03:43:26.886Z,1.52
2023-07-12T03:44:28.374Z,1.77
2023-07-12T03:45:29.852Z,1.85
2023-07-12T03:46:31.302Z,1.73
2023-07-12T03:47:32.962Z,2.08
2023-07-12T03:48:35.150Z,1.80
2023-07-12T03:49:37.182Z,2.00
2023-07-12T03:50:40.198Z,1.80
2023-07-12T03:51:41.977Z,1.73
2023-07-12T03:52:43.863Z,1.83
2023-07-12T03:53:45.896Z,1.85
2023-07-12T03:54:47.339Z,1.95
2023-07-12T03:55:49.544Z,2.00
2023-07-12T03:56:52.612Z,1.80
2023-07-12T03:57:55.936Z,1.92
2023-07-12T03:58:57.437Z,1.98
2023-07-12T03:59:58.968Z,1.83
2023-07-12T04:01:07.000Z,1.90
2023-07-12T04:02:08.471Z,2.00
2023-07-12T04:03:12.538Z,2.00
2023-07-12T04:04:14.099Z,2.00
2023-07-12T04:05:15.646Z,1.75
2023-07-12T04:06:17.121Z,2.10
2023-07-12T04:07:19.058Z,2.00
2023-07-12T04:08:21.490Z,2.20
2023-07-12T04:09:22.940Z,2.15
2023-07-12T04:10:24.444Z,2.05
2023-07-12T04:11:28.159Z,2.15
2023-07-12T04:12:29.594Z,2.10
2023-07-12T04:13:31.599Z,2.47
2023-07-12T04:14:33.033Z,2.05
2023-07-12T04:15:36.001Z,1.95
2023-07-12T04:16:38.010Z,2.30
2023-07-12T04:17:39.504Z,2.00
2023-07-12T04:18:41.333Z,2.03
2023-07-12T04:19:42.898Z,2.13
2023-07-12T04:20:44.913Z,2.22
2023-07-12T04:21:46.843Z,2.10
2023-07-12T04:22:52.213Z,1.98
2023-07-12T04:23:53.882Z,2.10
2023-07-12T04:24:55.520Z,2.17
2023-07-12T04:26:05.691Z,2.40
2023-07-12T04:27:07.167Z,1.90
2023-07-12T04:28:08.927Z,2.17
2023-07-12T04:29:10.376Z,2.25
2023-07-12T04:30:14.823Z,1.92
2023-07-12T04:31:18.605Z,2.40
2023-07-12T04:32:20.127Z,1.90
2023-07-12T04:33:22.069Z,2.10
2023-07-12T04:35:31.276Z,1.75
2023-07-12T04:36:33.257Z,2.10
2023-07-12T04:37:35.403Z,2.00
2023-07-12T04:38:37.569Z,2.03
2023-07-12T04:39:39.071Z,2.13
2023-07-12T04:40:40.516Z,1.90
2023-07-12T04:41:42.428Z,1.83
2023-07-12T04:42:44.556Z,1.83
2023-07-12T04:43:46.482Z,1.80
2023-07-12T04:44:47.951Z,2.15
2023-07-12T04:45:49.750Z,2.03
2023-07-12T04:46:51.211Z,2.13
2023-07-12T04:47:52.820Z,2.17
2023-07-12T04:48:55.926Z,1.95
2023-07-12T04:49:58.356Z,1.80
2023-07-12T04:51:01.755Z,2.10
2023-07-12T04:52:05.656Z,2.00
2023-07-12T04:53:07.122Z,2.00
2023-07-12T04:54:09.041Z,2.00
2023-07-12T04:55:27.478Z,1.83
2023-07-12T04:56:29.178Z,1.88
2023-07-12T04:57:31.260Z,2.35
2023-07-12T04:58:32.849Z,2.20
2023-07-12T04:59:35.535Z,1.75
2023-07-12T05:00:37.092Z,2.10
2023-07-12T05:01:38.652Z,2.05
2023-07-12T05:02:40.541Z,1.85
2023-07-12T05:03:42.490Z,2.33
2023-07-12T05:04:45.049Z,2.38
2023-07-12T05:05:47.067Z,1.85
2023-07-12T05:06:48.951Z,1.70
2023-07-12T05:07:50.452Z,1.80
2023-07-12T05:08:52.994Z,2.20
2023-07-12T05:09:54.413Z,1.85
2023-07-12T05:11:02.629Z,1.90
2023-07-12T05:12:05.029Z,2.00
2023-07-12T05:13:06.498Z,2.10
2023-07-12T05:14:08.001Z,2.08
2023-07-12T05:15:11.648Z,1.90
2023-07-12T05:16:14.620Z,2.10
2023-07-12T05:17:16.057Z,2.33
2023-07-12T05:18:17.558Z,2.00
2023-07-12T05:19:19.178Z,2.03
2023-07-12T05:20:21.110Z,1.85
2023-07-12T05:21:25.143Z,1.80
2023-07-12T05:22:26.809Z,1.90
2023-07-12T05:23:28.317Z,2.10
2023-07-12T05:24:30.579Z,2.00
2023-07-12T05:25:32.210Z,2.15
2023-07-12T05:26:34.634Z,1.75
2023-07-12T05:27:36.609Z,1.63
2023-07-12T05:28:38.197Z,1.88
2023-07-12T05:29:39.686Z,2.00
2023-07-12T05:30:41.422Z,1.80
2023-07-12T05:31:45.677Z,1.70
2023-07-12T05:32:47.894Z,1.73
2023-07-12T05:33:49.429Z,2.03
2023-07-12T05:34:50.887Z,1.80
2023-07-12T05:35:52.851Z,1.98
2023-07-12T05:36:54.359Z,2.00
2023-07-12T05:37:55.808Z,2.08
2023-07-12T05:38:59.215Z,2.00
2023-07-12T05:40:00.772Z,2.13
2023-07-12T05:41:02.966Z,2.08
2023-07-12T05:42:04.812Z,2.03
2023-07-12T05:43:06.321Z,1.85
2023-07-12T05:44:07.830Z,2.10
2023-07-12T05:45:15.732Z,2.30
2023-07-12T05:46:17.659Z,1.98
2023-07-12T05:47:19.235Z,1.67
2023-07-12T05:48:20.686Z,1.90
2023-07-12T05:49:22.146Z,1.60
2023-07-12T05:50:23.654Z,1.77
2023-07-12T05:51:25.120Z,1.60
2023-07-12T05:52:26.686Z,1.90
2023-07-12T05:53:28.231Z,1.88
2023-07-12T05:54:30.685Z,1.85
2023-07-12T05:55:32.626Z,1.90
2023-07-12T05:56:34.194Z,1.98
2023-07-12T05:57:35.966Z,2.00
2023-07-12T05:58:37.465Z,2.13
2023-07-12T05:59:38.962Z,2.30
2023-07-12T06:00:40.765Z,1.83
2023-07-12T06:01:42.418Z,2.05
2023-07-12T06:02:43.995Z,1.58
2023-07-12T06:03:45.530Z,1.70
2023-07-12T06:04:47.282Z,1.70
2023-07-12T06:05:48.730Z,1.80
2023-07-12T06:06:51.716Z,1.80
2023-07-12T06:07:53.397Z,2.03
2023-07-12T06:08:55.393Z,1.67
2023-07-12T06:09:56.839Z,2.30
2023-07-12T06:10:58.606Z,2.22
2023-07-12T06:12:00.126Z,1.85
2023-07-12T06:13:02.394Z,2.10
2023-07-12T06:14:04.359Z,1.83
2023-07-12T06:15:07.524Z,2.15
2023-07-12T06:16:09.073Z,2.20
2023-07-12T06:17:10.730Z,1.92
2023-07-12T06:18:12.359Z,2.25
2023-07-12T06:19:15.095Z,2.00
2023-07-12T06:20:16.712Z,2.40
2023-07-12T06:21:18.137Z,2.10
2023-07-12T06:22:19.595Z,2.00
2023-07-12T06:23:21.569Z,2.20
2023-07-12T06:24:23.296Z,2.28
2023-07-12T06:25:25.884Z,1.90
2023-07-12T06:26:28.578Z,1.95
2023-07-12T06:27:30.090Z,2.30
2023-07-12T06:28:31.615Z,2.20
2023-07-12T06:29:33.081Z,2.42
2023-07-12T06:30:36.670Z,1.77
2023-07-12T06:31:38.396Z,2.47
2023-07-12T06:32:39.896Z,2.20
2023-07-12T06:33:43.388Z,2.05
2023-07-12T06:34:45.006Z,2.15
2023-07-12T06:35:46.649Z,2.15
2023-07-12T06:36:49.578Z,2.42
2023-07-12T06:37:51.053Z,2.25
2023-07-12T06:38:52.634Z,2.35
2023-07-12T06:39:54.118Z,2.53
2023-07-12T06:40:55.581Z,2.47
2023-07-12T06:41:57.765Z,2.30
2023-07-12T06:42:59.456Z,2.38
2023-07-12T06:44:00.936Z,2.42
2023-07-12T06:45:02.665Z,2.50
2023-07-12T06:46:04.923Z,2.10
2023-07-12T06:47:07.486Z,2.40
2023-07-12T06:48:08.951Z,2.42
2023-07-12T06:49:11.908Z,2.20
2023-07-12T06:50:14.257Z,2.30
2023-07-12T06:51:15.922Z,2.85
2023-07-12T06:52:17.432Z,2.30
2023-07-12T06:53:18.928Z,2.50
2023-07-12T06:54:20.369Z,2.40
2023-07-12T06:55:21.877Z,2.42
2023-07-12T06:56:23.344Z,2.80
2023-07-12T06:57:24.926Z,2.60
2023-07-12T06:58:26.393Z,2.65
2023-07-12T06:59:27.887Z,2.75
2023-07-12T07:00:29.321Z,2.78
2023-07-12T07:01:30.864Z,2.60
2023-07-12T07:02:32.441Z,2.28
2023-07-12T07:03:33.981Z,2.90
2023-07-12T07:04:35.459Z,3.00
2023-07-12T07:05:41.720Z,3.00
2023-07-12T07:06:43.746Z,2.92
2023-07-12T07:07:45.223Z,2.90
2023-07-12T07:08:48.595Z,2.53
2023-07-12T07:09:50.107Z,2.85
2023-07-12T07:10:53.932Z,2.88
2023-07-12T07:11:55.477Z,3.30
2023-07-12T07:12:56.964Z,3.10
2023-07-12T07:13:58.478Z,3.10
2023-07-12T07:14:59.906Z,3.10
2023-07-12T07:16:01.494Z,3.25
2023-07-12T07:17:03.276Z,3.00
2023-07-12T07:18:05.069Z,3.17
2023-07-12T07:19:06.868Z,3.05
2023-07-12T07:20:09.011Z,3.15
2023-07-12T07:21:10.953Z,3.40
2023-07-12T07:22:12.569Z,3.75
2023-07-12T07:23:15.036Z,3.25
2023-07-12T07:24:18.179Z,3.35
2023-07-12T07:25:21.429Z,3.45
2023-07-12T07:26:23.867Z,3.30
2023-07-12T07:27:25.647Z,3.70
2023-07-12T07:28:27.639Z,3.25
2023-07-12T07:29:29.435Z,3.42
2023-07-12T07:30:32.309Z,3.17
2023-07-12T07:31:33.957Z,3.50
2023-07-12T07:32:35.773Z,3.45
2023-07-12T07:33:41.811Z,3.80
2023-07-12T07:34:43.702Z,3.67
2023-07-12T07:35:45.191Z,3.30
2023-07-12T07:36:46.654Z,4.00
2023-07-12T07:37:49.736Z,3.53
2023-07-12T07:38:51.194Z,3.38
2023-07-12T07:39:52.744Z,3.38
2023-07-12T07:40:55.274Z,3.88
2023-07-12T07:41:56.728Z,3.63
2023-07-12T07:42:58.222Z,3.67
2023-07-12T07:43:59.789Z,3.50
2023-07-12T07:45:01.240Z,3.13
2023-07-12T07:46:04.142Z,3.72
2023-07-12T07:47:06.043Z,3.60
2023-07-12T07:48:07.566Z,3.65
2023-07-12T07:49:09.025Z,3.55
2023-07-12T07:50:10.622Z,3.53
2023-07-12T07:51:13.296Z,3.65
2023-07-12T07:52:14.758Z,3.72
2023-07-12T07:53:16.347Z,3.97
2023-07-12T07:54:17.833Z,3.45
2023-07-12T07:55:19.270Z,3.90
2023-07-12T07:56:21.278Z,3.50
2023-07-12T07:57:23.709Z,3.58
2023-07-12T07:58:25.191Z,4.00
2023-07-12T07:59:26.634Z,3.30
2023-07-12T08:00:28.093Z,3.60
2023-07-12T08:01:29.586Z,3.42
2023-07-12T08:02:31.062Z,4.55
2023-07-12T08:03:35.694Z,3.78
2023-07-12T08:04:40.765Z,4.05
2023-07-12T08:05:42.226Z,4.05
2023-07-12T08:06:43.742Z,3.72
2023-07-12T08:07:47.683Z,3.80
2023-07-12T08:08:50.044Z,3.90
2023-07-12T08:09:52.038Z,3.70
2023-07-12T08:10:53.513Z,3.80
2023-07-12T08:11:54.984Z,3.47
2023-07-12T08:12:59.040Z,3.88
2023-07-12T08:14:00.793Z,3.95
2023-07-12T08:15:02.280Z,4.28
2023-07-12T08:16:03.794Z,4.18
2023-07-12T08:17:12.115Z,4.07
2023-07-12T08:18:13.682Z,4.30
2023-07-12T08:19:18.434Z,3.88
2023-07-12T08:20:21.254Z,3.92
2023-07-12T08:21:22.722Z,4.35
2023-07-12T08:22:25.477Z,4.20
2023-07-12T08:24:31.503Z,3.95
2023-07-12T08:25:35.735Z,3.92
2023-07-12T08:26:37.485Z,4.03
2023-07-12T08:27:38.954Z,4.05
2023-07-12T08:28:40.413Z,4.00
2023-07-12T08:29:41.888Z,3.78
2023-07-12T08:30:43.809Z,3.88
2023-07-12T08:31:45.364Z,4.00
2023-07-12T08:32:46.903Z,4.05
2023-07-12T08:33:50.637Z,4.20
2023-07-12T08:34:52.487Z,3.97
2023-07-12T08:35:53.941Z,4.20
2023-07-12T08:36:55.556Z,3.90
2023-07-12T08:37:58.200Z,3.50
2023-07-12T08:38:59.838Z,4.28
2023-07-12T08:40:01.781Z,3.88
2023-07-12T08:41:14.456Z,4.35
2023-07-12T08:42:25.267Z,3.88
2023-07-12T08:43:32.729Z,3.97
2023-07-12T08:44:36.707Z,3.67
2023-07-12T08:45:38.206Z,3.53
2023-07-12T08:46:47.040Z,4.05
2023-07-12T08:49:00.415Z,3.67
2023-07-12T08:50:02.111Z,3.70
2023-07-12T08:51:14.665Z,3.83
2023-07-12T08:52:25.891Z,3.90
2023-07-12T08:53:31.101Z,4.10
2023-07-12T08:54:35.951Z,3.90
2023-07-12T08:55:38.387Z,4.13
2023-07-12T08:56:39.883Z,3.50
2023-07-12T08:57:43.246Z,3.75
2023-07-12T08:58:55.427Z,3.85
2023-07-12T09:00:09.165Z,3.80
2023-07-12T09:01:17.079Z,4.10
2023-07-12T09:02:23.981Z,3.58
2023-07-12T09:03:25.506Z,3.33
2023-07-12T09:04:30.374Z,3.78
2023-07-12T09:05:34.045Z,3.90
2023-07-12T09:06:36.639Z,4.30
2023-07-12T09:07:38.932Z,3.50
2023-07-12T09:08:43.722Z,3.53
2023-07-12T09:09:49.413Z,4.35
2023-07-12T09:10:57.227Z,3.70
2023-07-12T09:11:59.202Z,4.20
2023-07-12T09:13:02.809Z,4.43
2023-07-12T09:14:04.310Z,4.97
2023-07-12T09:15:12.390Z,4.40
2023-07-12T09:16:28.729Z,4.55
2023-07-12T09:17:36.238Z,4.28
2023-07-12T09:18:38.845Z,3.90
2023-07-12T09:19:40.409Z,4.07
2023-07-12T09:20:42.289Z,4.43
2023-07-12T09:21:48.899Z,4.30
2023-07-12T09:22:50.844Z,4.50
2023-07-12T09:23:54.407Z,4.82
2023-07-12T09:24:57.423Z,4.13
2023-07-12T09:25:58.888Z,4.40
2023-07-12T09:27:14.490Z,4.40
2023-07-12T09:28:16.309Z,4.22
2023-07-12T09:29:26.018Z,4.32
2023-07-12T09:30:30.973Z,4.68
2023-07-12T09:31:35.767Z,4.43
2023-07-12T09:32:38.070Z,4.60
2023-07-12T09:33:39.587Z,4.30
2023-07-12T09:34:41.680Z,4.47
2023-07-12T09:35:48.324Z,4.60
2023-07-12T09:37:00.918Z,4.50
2023-07-12T09:38:05.891Z,4.32
2023-07-12T09:39:11.117Z,4.60
2023-07-12T09:40:17.674Z,4.45
2023-07-12T09:41:24.254Z,4.20
2023-07-12T09:42:27.475Z,4.03
2023-07-12T09:43:29.037Z,4.20
2023-07-12T09:44:31.447Z,3.80
2023-07-12T09:45:36.730Z,4.05
2023-07-12T09:46:40.054Z,3.88
2023-07-12T09:47:59.618Z,3.90
2023-07-12T09:49:09.934Z,3.85
2023-07-12T09:50:27.588Z,4.05
2023-07-12T09:52:01.258Z,4.05
2023-07-12T09:53:10.781Z,4.30
2023-07-12T09:54:29.059Z,3.95
2023-07-12T09:55:37.042Z,4.30
2023-07-12T09:56:56.242Z,4.20
2023-07-12T09:58:16.018Z,4.00
2023-07-12T09:59:30.382Z,3.67
2023-07-12T10:00:51.279Z,4.32
2023-07-12T10:02:22.617Z,3.75
2023-07-12T10:03:27.799Z,4.10
2023-07-12T10:04:53.501Z,3.95
2023-07-12T10:06:03.903Z,3.88
2023-07-12T10:07:34.198Z,4.03
2023-07-12T10:08:47.604Z,4.07
2023-07-12T10:09:50.601Z,3.38
2023-07-12T10:11:39.144Z,3.47
2023-07-12T10:12:47.233Z,3.72
2023-07-12T10:13:52.764Z,3.58
2023-07-12T10:14:55.827Z,3.83
2023-07-12T10:15:59.457Z,4.13
2023-07-12T10:17:02.786Z,3.72
2023-07-12T10:18:05.858Z,3.78
2023-07-12T10:19:17.444Z,3.85
2023-07-12T10:20:23.915Z,3.63
2023-07-12T10:21:27.350Z,3.72
2023-07-12T10:22:41.189Z,3.70
2023-07-12T10:23:56.481Z,3.70
2023-07-12T10:25:01.335Z,3.42
2023-07-12T10:26:06.723Z,3.20
2023-07-12T10:27:32.986Z,3.45
2023-07-12T10:28:43.488Z,3.17
2023-07-12T10:29:54.919Z,3.40
2023-07-12T10:30:59.976Z,3.80
2023-07-12T10:32:06.143Z,3.83
2023-07-12T10:33:30.618Z,3.35
2023-07-12T10:34:58.158Z,3.63
2023-07-12T10:36:05.709Z,3.60
2023-07-12T10:37:15.445Z,3.33
2023-07-12T10:38:22.205Z,3.70
2023-07-12T10:39:30.912Z,3.75
2023-07-12T10:40:38.286Z,3.90
2023-07-12T10:41:47.241Z,3.80
2023-07-12T10:42:55.804Z,3.60
2023-07-12T10:44:06.492Z,3.70
2023-07-12T10:45:17.051Z,3.25
2023-07-12T10:46:36.179Z,3.38
2023-07-12T10:47:43.116Z,3.55
2023-07-12T10:48:50.225Z,3.60
2023-07-12T10:49:53.735Z,3.20
2023-07-12T10:51:12.800Z,3.22
2023-07-12T10:52:25.454Z,3.20
2023-07-12T10:53:36.240Z,3.17
2023-07-12T10:54:38.006Z,3.20
2023-07-12T10:55:44.073Z,3.40
2023-07-12T10:56:56.741Z,2.88
2023-07-12T10:58:16.198Z,3.08
2023-07-12T10:59:31.840Z,3.03
2023-07-12T11:00:50.580Z,3.17
2023-07-12T11:01:54.734Z,3.50
2023-07-12T11:03:16.396Z,3.10
2023-07-12T11:04:28.403Z,3.03
2023-07-12T11:05:39.072Z,3.08
2023-07-12T11:07:05.542Z,3.55
2023-07-12T11:08:32.881Z,3.20
2023-07-12T11:09:46.204Z,3.38
2023-07-12T11:10:48.198Z,3.40
2023-07-12T11:11:59.735Z,3.30
2023-07-12T11:13:15.491Z,3.40
2023-07-12T11:14:40.408Z,3.20
2023-07-12T11:15:58.912Z,3.10
2023-07-12T11:17:12.511Z,3.30
2023-07-12T11:18:26.205Z,3.42
2023-07-12T11:19:43.956Z,3.40
2023-07-12T11:21:25.945Z,3.22
2023-07-12T11:22:53.333Z,3.28
2023-07-12T11:23:54.851Z,3.05
2023-07-12T11:25:07.449Z,2.80
2023-07-12T11:26:30.598Z,2.92
2023-07-12T11:27:51.972Z,3.10
2023-07-12T11:28:54.494Z,2.88
2023-07-12T11:29:57.525Z,2.70
2023-07-12T11:31:26.856Z,3.10
2023-07-12T11:32:34.071Z,3.40
2023-07-12T11:33:36.480Z,3.20
2023-07-12T11:34:41.629Z,3.00
2023-07-12T11:35:48.307Z,2.85
2023-07-12T11:36:55.681Z,3.13
2023-07-12T11:37:59.972Z,3.08
2023-07-12T11:39:02.437Z,3.15
2023-07-12T11:40:24.894Z,2.85
2023-07-12T11:41:29.244Z,3.45
2023-07-12T11:42:32.162Z,3.28
2023-07-12T11:43:36.976Z,3.03
2023-07-12T11:44:38.430Z,3.28
2023-07-12T11:45:40.523Z,3.55
2023-07-12T11:46:43.291Z,3.30
2023-07-12T11:47:47.872Z,2.90
2023-07-12T11:48:52.113Z,3.20
2023-07-12T11:49:59.190Z,3.03
2023-07-12T11:51:09.960Z,3.08
2023-07-12T11:52:16.826Z,3.20
2023-07-12T11:53:19.896Z,2.92
2023-07-12T11:54:35.614Z,2.75
2023-07-12T11:55:37.248Z,3.08
2023-07-12T11:56:42.361Z,2.97
2023-07-12T11:57:45.415Z,2.95
2023-07-12T11:58:47.214Z,3.25
2023-07-12T11:59:51.658Z,3.88
2023-07-12T12:00:56.182Z,3.60
2023-07-12T12:01:58.043Z,4.30
2023-07-12T12:03:00.562Z,3.28
2023-07-12T12:04:06.654Z,2.70
2023-07-12T12:05:26.092Z,3.13
2023-07-12T12:06:27.612Z,3.10
2023-07-12T12:07:40.332Z,3.22
2023-07-12T12:08:55.637Z,2.90
2023-07-12T12:09:59.089Z,2.95
2023-07-12T12:11:00.557Z,2.92
2023-07-12T12:12:03.831Z,3.22
2023-07-12T12:13:24.472Z,3.22
2023-07-12T12:15:31.764Z,2.72
2023-07-12T12:16:33.294Z,2.90
2023-07-12T12:17:38.007Z,3.20
2023-07-12T12:18:51.837Z,2.75
2023-07-12T12:20:27.353Z,3.15
2023-07-12T12:21:29.438Z,2.80
2023-07-12T12:22:31.331Z,2.60
2023-07-12T12:23:49.025Z,2.63
2023-07-12T12:24:55.230Z,2.88
2023-07-12T12:26:01.479Z,2.90
2023-07-12T12:27:15.452Z,3.10
2023-07-12T12:28:27.562Z,3.05
2023-07-12T12:29:29.356Z,2.83
2023-07-12T12:30:32.111Z,3.28
2023-07-12T12:31:48.713Z,3.13
2023-07-12T12:33:24.638Z,2.75
2023-07-12T12:34:31.999Z,2.75
2023-07-12T12:35:47.577Z,2.80
2023-07-12T12:37:07.482Z,3.10
2023-07-12T12:38:26.290Z,2.95
2023-07-12T12:39:29.003Z,2.65
2023-07-12T12:41:38.412Z,3.00
2023-07-12T12:43:03.179Z,3.05
2023-07-12T12:44:12.264Z,3.00
2023-07-12T12:45:13.772Z,3.00
2023-07-12T12:47:22.257Z,3.05
2023-07-12T12:53:54.525Z,2.85
2023-07-12T12:55:10.518Z,2.58
2023-07-12T13:01:14.537Z,2.95
2023-07-12T13:01:44.379Z,3.00
2023-07-12T13:04:29.868Z,2.95
2023-07-12T13:04:57.560Z,2.65
2023-07-12T13:06:04.100Z,2.85
2023-07-12T13:07:37.390Z,2.97
2023-07-12T13:16:21.479Z,3.03
2023-07-12T13:17:49.293Z,3.03
2023-07-12T13:17:51.394Z,3.38
2023-07-12T13:19:02.590Z,3.03
2023-07-12T13:19:50.199Z,2.95
2023-07-12T13:20:54.031Z,3.63
2023-07-12T13:21:56.035Z,3.50
2023-07-12T13:22:59.154Z,3.03
2023-07-12T13:24:00.708Z,3.65
2023-07-12T13:25:02.166Z,3.40
2023-07-12T13:26:03.626Z,3.08
2023-07-12T13:27:20.040Z,2.47
2023-07-12T13:28:22.617Z,2.92
2023-07-12T13:29:24.488Z,2.80
2023-07-12T13:30:29.608Z,2.83
2023-07-12T13:31:31.107Z,2.90
2023-07-12T13:32:32.681Z,3.13
2023-07-12T13:33:34.198Z,2.90
2023-07-12T13:36:46.694Z,2.75
2023-07-12T13:37:52.064Z,2.83
2023-07-12T13:40:04.729Z,2.83
2023-07-12T13:45:26.375Z,3.20
2023-07-12T13:46:28.052Z,3.00
2023-07-12T13:47:30.427Z,2.60
2023-07-12T13:48:31.930Z,3.00
2023-07-12T13:49:33.389Z,3.00
2023-07-12T13:50:34.817Z,3.00
2023-07-12T13:51:36.447Z,2.70
2023-07-12T13:52:37.905Z,2.70
2023-07-12T13:53:39.378Z,2.70
2023-07-12T13:54:41.197Z,2.70
2023-07-12T13:55:44.977Z,2.85
2023-07-12T13:56:48.747Z,2.70
2023-07-12T13:57:50.395Z,3.10
2023-07-12T14:01:24.482Z,2.85
2023-07-12T14:03:42.795Z,2.50
2023-07-12T14:04:52.724Z,2.70
2023-07-12T14:05:57.816Z,3.30
2023-07-12T14:07:02.163Z,2.85
2023-07-12T14:09:21.084Z,2.97
2023-07-12T14:10:26.172Z,2.50
2023-07-12T14:11:33.600Z,2.70
2023-07-12T14:12:35.098Z,2.47
2023-07-12T14:13:36.617Z,3.05
2023-07-12T14:14:38.108Z,3.42
2023-07-12T14:15:39.730Z,3.63
2023-07-12T14:16:41.349Z,3.25
2023-07-12T14:17:42.844Z,2.80
2023-07-12T14:18:44.459Z,2.72
2023-07-12T14:19:48.002Z,2.45
2023-07-12T14:20:50.501Z,2.55
2023-07-12T14:21:52.102Z,2.53
2023-07-12T14:22:54.987Z,2.83
2023-07-12T14:23:57.132Z,2.70
2023-07-12T14:24:59.968Z,2.80
2023-07-12T14:26:01.537Z,2.80
2023-07-12T14:27:04.003Z,2.70
2023-07-12T14:28:06.248Z,2.50
2023-07-12T14:29:32.512Z,2.50
2023-07-12T14:31:35.426Z,2.50
2023-07-12T14:32:39.995Z,2.60
2023-07-12T14:33:41.680Z,2.88
2023-07-12T14:34:43.220Z,2.55
2023-07-12T14:35:44.780Z,2.53
2023-07-12T14:36:46.388Z,2.70
2023-07-12T14:37:50.666Z,2.90
2023-07-12T14:38:52.825Z,3.05
2023-07-12T14:39:54.622Z,2.50
2023-07-12T14:40:56.181Z,2.55
2023-07-12T14:41:57.657Z,2.38
2023-07-12T14:42:59.140Z,2.40
2023-07-12T14:44:12.994Z,2.70
2023-07-12T14:45:22.482Z,2.55
2023-07-12T14:46:24.097Z,2.90
2023-07-12T14:47:25.916Z,2.45
2023-07-12T14:48:27.394Z,2.42
2023-07-12T14:49:28.947Z,2.53
2023-07-12T14:50:30.508Z,2.47
2023-07-12T14:51:32.802Z,2.55
2023-07-12T14:52:34.931Z,2.53
2023-07-12T14:53:36.927Z,2.28
2023-07-12T14:54:49.067Z,2.92
2023-07-12T14:55:59.205Z,2.40
2023-07-12T14:57:13.411Z,2.65
2023-07-12T14:58:22.788Z,2.42
2023-07-12T14:59:26.912Z,2.38
2023-07-12T15:00:28.700Z,2.70
2023-07-12T15:01:30.998Z,2.85